createdAt,value
2018-07-09T00:02:23.474Z,7.03
2018-07-09T00:04:51.554Z,6.43
2018-07-09T00:07:19.628Z,7.33
2018-07-09T00:09:47.690Z,7.00
2018-07-09T00:12:15.747Z,6.30
2018-07-09T00:14:44.107Z,6.57
2018-07-09T00:17:12.174Z,6.60
2018-07-09T00:19:40.243Z,7.03
2018-07-09T00:22:08.311Z,6.87
2018-07-09T00:24:36.394Z,6.47
2018-07-09T00:27:04.875Z,7.93
2018-07-09T00:29:32.922Z,7.53
2018-07-09T00:32:00.991Z,7.40
2018-07-09T00:34:29.081Z,7.00
2018-07-09T00:36:57.151Z,7.30
2018-07-09T00:39:25.544Z,6.87
2018-07-09T00:41:53.630Z,6.80
2018-07-09T00:44:21.734Z,6.70
2018-07-09T00:46:49.649Z,5.83
2018-07-09T00:49:17.722Z,6.67
2018-07-09T00:51:46.102Z,6.13
2018-07-09T00:54:14.187Z,6.30
2018-07-09T00:56:42.263Z,5.80
2018-07-09T00:59:10.331Z,5.87
2018-07-09T01:01:38.488Z,5.83
2018-07-09T01:04:06.890Z,6.20
2018-07-09T01:06:35.081Z,5.80
2018-07-09T01:09:04.474Z,6.50
2018-07-09T01:11:41.898Z,5.97
2018-07-09T01:14:09.954Z,6.23
2018-07-09T01:16:38.270Z,5.47
2018-07-09T01:19:06.342Z,5.20
2018-07-09T01:21:34.429Z,5.40
2018-07-09T01:24:02.586Z,5.80
2018-07-09T01:26:30.663Z,5.87
2018-07-09T01:28:59.246Z,5.77
2018-07-09T01:31:27.394Z,5.80
2018-07-09T01:33:55.642Z,5.57
2018-07-09T01:36:23.730Z,5.30
2018-07-09T01:38:51.795Z,6.43
2018-07-09T01:41:20.151Z,6.40
2018-07-09T01:43:48.232Z,5.73
2018-07-09T01:46:16.385Z,5.87
2018-07-09T01:48:44.468Z,5.63
2018-07-09T01:51:12.537Z,6.25
2018-07-09T01:53:40.862Z,6.20
2018-07-09T01:56:08.938Z,6.13
2018-07-09T01:58:37.011Z,5.53
2018-07-09T02:01:05.093Z,5.30
2018-07-09T02:03:32.954Z,5.63
2018-07-09T02:06:01.382Z,5.80
2018-07-09T02:08:29.455Z,5.73
2018-07-09T02:10:57.532Z,5.27
2018-07-09T02:13:25.615Z,5.80
2018-07-09T02:15:53.695Z,5.67
2018-07-09T02:18:21.770Z,5.70
2018-07-09T02:20:49.850Z,5.67
2018-07-09T02:23:17.943Z,6.20
2018-07-09T02:25:46.061Z,5.87
2018-07-09T02:28:14.162Z,5.60
2018-07-09T02:30:42.210Z,5.00
2018-07-09T02:33:10.286Z,5.10
2018-07-09T02:35:38.355Z,4.90
2018-07-09T02:38:06.479Z,5.60
2018-07-09T02:40:34.415Z,5.23
2018-07-09T02:43:03.598Z,6.57
2018-07-09T02:45:31.674Z,5.57
2018-07-09T02:47:59.743Z,6.00
2018-07-09T02:50:27.886Z,6.00
2018-07-09T02:52:55.967Z,5.50
2018-07-09T02:55:24.346Z,5.00
2018-07-09T02:57:52.418Z,5.37
2018-07-09T03:00:20.512Z,5.27
2018-07-09T03:02:48.780Z,5.40
2018-07-09T03:05:17.162Z,5.60
2018-07-09T03:07:45.526Z,5.50
2018-07-09T03:10:13.612Z,6.00
2018-07-09T03:12:41.679Z,6.03
2018-07-09T03:15:09.751Z,6.00
2018-07-09T03:17:37.818Z,6.27
2018-07-09T03:20:05.911Z,6.45
2018-07-09T03:22:33.991Z,6.50
2018-07-09T03:25:02.096Z,7.13
2018-07-09T03:27:30.169Z,6.53
2018-07-09T03:29:58.240Z,5.80
2018-07-09T03:32:26.325Z,6.00
2018-07-09T03:34:54.422Z,6.27
2018-07-09T03:37:22.494Z,5.83
2018-07-09T03:39:50.659Z,5.97
2018-07-09T03:42:18.946Z,6.10
2018-07-09T03:44:47.035Z,5.70
2018-07-09T03:47:15.126Z,6.40
2018-07-09T03:49:43.266Z,6.20
2018-07-09T03:52:11.350Z,6.43
2018-07-09T03:54:39.439Z,6.87
2018-07-09T03:57:07.290Z,5.83
2018-07-09T03:59:35.356Z,5.67
2018-07-09T04:02:08.177Z,5.73
2018-07-09T04:04:36.230Z,5.50
2018-07-09T04:07:04.253Z,5.95
2018-07-09T04:09:32.340Z,6.00
2018-07-09T04:12:00.411Z,5.67
2018-07-09T04:14:28.553Z,6.03
2018-07-09T04:16:56.628Z,6.20
2018-07-09T04:19:24.710Z,6.40
2018-07-09T04:21:52.781Z,6.50
2018-07-09T04:24:20.855Z,7.13
2018-07-09T04:26:49.242Z,6.30
2018-07-09T04:29:17.323Z,6.97
2018-07-09T04:31:45.509Z,6.73
2018-07-09T04:34:13.738Z,6.43
2018-07-09T04:36:41.734Z,8.43
2018-07-09T04:39:10.122Z,7.70
2018-07-09T04:41:38.186Z,7.70
2018-07-09T04:44:06.256Z,7.90
2018-07-09T04:46:34.334Z,8.50
2018-07-09T04:49:02.477Z,10.23
2018-07-09T04:51:30.714Z,9.60
2018-07-09T04:53:59.053Z,10.50
2018-07-09T04:56:27.562Z,10.58
2018-07-09T04:58:55.638Z,10.07
2018-07-09T05:01:23.757Z,10.43
2018-07-09T05:03:51.853Z,10.00
2018-07-09T05:06:19.921Z,10.40
2018-07-09T05:08:48.010Z,9.13
2018-07-09T05:11:16.082Z,9.30
2018-07-09T05:13:44.154Z,9.37
2018-07-09T05:16:12.227Z,9.20
2018-07-09T05:18:40.294Z,9.67
2018-07-09T05:21:08.366Z,9.80
2018-07-09T05:23:36.483Z,11.50
2018-07-09T05:26:04.604Z,10.80
2018-07-09T05:28:33.191Z,11.50
2018-07-09T05:31:01.283Z,12.47
2018-07-09T05:33:29.358Z,13.90
2018-07-09T05:35:57.448Z,13.47
2018-07-09T05:38:25.862Z,12.90
2018-07-09T05:40:54.381Z,14.30
2018-07-09T05:43:22.443Z,15.33
2018-07-09T05:45:50.517Z,15.90
2018-07-09T05:48:18.592Z,19.82
2018-07-09T05:50:46.665Z,17.50
2018-07-09T05:53:14.978Z,17.47
2018-07-09T05:55:43.068Z,17.80
2018-07-09T05:58:11.162Z,16.83
2018-07-09T06:00:39.257Z,16.70
2018-07-09T06:03:07.344Z,16.20
2018-07-09T06:05:35.495Z,14.73
2018-07-09T06:08:03.538Z,15.03
2018-07-09T06:10:31.622Z,15.43
2018-07-09T06:12:59.719Z,15.37
2018-07-09T06:15:27.814Z,17.10
2018-07-09T06:17:55.950Z,17.23
2018-07-09T06:20:24.022Z,18.27
2018-07-09T06:22:52.121Z,16.87
2018-07-09T06:25:20.237Z,18.30
2018-07-09T06:27:48.274Z,16.90
2018-07-09T06:30:16.515Z,14.93
2018-07-09T06:32:44.575Z,16.87
2018-07-09T06:35:12.645Z,14.33
2018-07-09T06:37:40.770Z,15.80
2018-07-09T06:40:09.067Z,13.87
2018-07-09T06:42:37.155Z,13.03
2018-07-09T06:45:05.320Z,13.20
2018-07-09T06:47:33.557Z,13.43
2018-07-09T06:50:01.953Z,13.00
2018-07-09T06:52:29.926Z,11.48
2018-07-09T06:54:58.150Z,11.53
2018-07-09T06:57:26.237Z,10.45
2018-07-09T06:59:54.282Z,9.35
2018-07-09T07:02:22.396Z,7.95
2018-07-09T07:04:50.467Z,9.68
2018-07-09T07:07:18.682Z,9.55
2018-07-09T07:09:46.847Z,8.83
2018-07-09T07:12:14.988Z,7.53
2018-07-09T07:14:43.064Z,5.55
2018-07-09T07:17:11.188Z,6.58
2018-07-09T07:19:39.246Z,5.90
2018-07-09T07:22:07.358Z,5.67
2018-07-09T07:24:35.438Z,5.22
2018-07-09T07:27:03.522Z,5.35
2018-07-09T07:29:31.595Z,5.25
2018-07-09T07:31:59.689Z,6.05
2018-07-09T07:34:27.779Z,5.85
2018-07-09T07:36:56.099Z,5.33
2018-07-09T07:39:24.532Z,5.90
2018-07-09T07:41:52.551Z,5.40
2018-07-09T07:44:20.630Z,5.65
2018-07-09T07:46:48.788Z,5.55
2018-07-09T07:49:16.939Z,5.00
2018-07-09T07:51:45.035Z,5.10
2018-07-09T07:54:13.295Z,5.17
2018-07-09T07:56:41.382Z,4.25
2018-07-09T07:59:09.451Z,4.00
2018-07-09T08:01:37.519Z,4.60
2018-07-09T08:04:05.726Z,4.47
2018-07-09T08:06:33.803Z,4.42
2018-07-09T08:09:01.943Z,3.87
2018-07-09T08:11:47.687Z,4.70
2018-07-09T08:13:58.249Z,3.67
2018-07-09T08:16:26.379Z,4.30
2018-07-09T08:18:54.458Z,4.28
2018-07-09T08:21:22.559Z,4.50
2018-07-09T08:23:51.024Z,4.12
2018-07-09T08:26:19.090Z,3.62
2018-07-09T08:28:47.220Z,3.42
2018-07-09T08:31:15.561Z,3.95
2018-07-09T08:33:43.587Z,3.75
2018-07-09T08:36:11.728Z,3.55
2018-07-09T08:38:39.810Z,3.45
2018-07-09T08:41:07.898Z,3.35
2018-07-09T08:43:35.975Z,3.15
2018-07-09T08:46:04.066Z,2.90
2018-07-09T08:48:32.135Z,3.05
2018-07-09T08:51:00.211Z,3.62
2018-07-09T08:53:28.576Z,3.12
2018-07-09T08:55:56.670Z,2.67
2018-07-09T08:58:24.746Z,2.65
2018-07-09T09:00:52.915Z,2.70
2018-07-09T09:03:21.003Z,2.60
2018-07-09T09:05:48.951Z,2.98
2018-07-09T09:08:17.032Z,3.00
2018-07-09T09:10:45.123Z,2.52
2018-07-09T09:13:13.191Z,3.02
2018-07-09T09:15:41.543Z,2.85
2018-07-09T09:18:09.643Z,2.60
2018-07-09T09:20:37.711Z,3.12
2018-07-09T09:23:05.786Z,2.58
2018-07-09T09:25:33.910Z,2.55
2018-07-09T09:28:01.983Z,2.12
2018-07-09T09:30:30.082Z,2.20
2018-07-09T09:32:58.182Z,3.02
2018-07-09T09:35:26.325Z,2.55
2018-07-09T09:37:54.573Z,2.50
2018-07-09T09:40:22.669Z,2.10
2018-07-09T09:42:50.755Z,2.37
2018-07-09T09:45:18.838Z,2.52
2018-07-09T09:47:46.915Z,2.65
2018-07-09T09:50:14.990Z,2.17
2018-07-09T09:52:43.062Z,2.05
2018-07-09T09:55:11.132Z,2.10
2018-07-09T09:57:39.206Z,2.00
2018-07-09T10:00:07.582Z,1.90
2018-07-09T10:02:35.704Z,1.85
2018-07-09T10:05:03.800Z,2.00
2018-07-09T10:07:31.872Z,2.00
2018-07-09T10:09:59.954Z,2.22
2018-07-09T10:12:28.030Z,1.72
2018-07-09T10:14:56.147Z,1.52
2018-07-09T10:17:24.223Z,1.82
2018-07-09T10:19:52.308Z,1.77
2018-07-09T10:22:20.370Z,1.40
2018-07-09T10:24:48.481Z,1.87
2018-07-09T10:27:16.581Z,1.70
2018-07-09T10:29:44.663Z,1.87
2018-07-09T10:32:12.736Z,1.75
2018-07-09T10:34:40.821Z,1.77
2018-07-09T10:37:08.906Z,1.50
2018-07-09T10:39:37.044Z,1.50
2018-07-09T10:42:05.086Z,1.60
2018-07-09T10:44:33.340Z,1.80
2018-07-09T10:47:01.491Z,2.02
2018-07-09T10:49:29.517Z,1.72
2018-07-09T10:51:57.589Z,1.92
2018-07-09T10:54:31.995Z,2.02
2018-07-09T10:57:00.083Z,2.20
2018-07-09T10:59:28.161Z,1.98
2018-07-09T11:01:56.232Z,1.85
2018-07-09T11:04:24.306Z,1.40
2018-07-09T11:06:52.374Z,1.60
2018-07-09T11:09:20.445Z,1.67
2018-07-09T11:11:48.499Z,1.82
2018-07-09T11:14:16.598Z,1.50
2018-07-09T11:16:44.702Z,1.42
2018-07-09T11:19:12.770Z,0.90
2018-07-09T11:21:40.921Z,1.00
2018-07-09T11:24:09.071Z,1.17
2018-07-09T11:26:37.260Z,0.90
2018-07-09T11:29:05.333Z,1.30
2018-07-09T11:31:33.405Z,1.05
2018-07-09T11:34:01.477Z,1.40
2018-07-09T11:36:29.598Z,0.93
2018-07-09T11:38:57.652Z,1.15
2018-07-09T11:41:25.895Z,1.10
2018-07-09T11:43:53.954Z,1.55
2018-07-09T11:46:22.034Z,1.60
2018-07-09T11:48:50.102Z,1.37
2018-07-09T11:51:18.179Z,1.30
2018-07-09T11:53:46.256Z,1.20
2018-07-09T11:56:14.399Z,1.20
2018-07-09T11:58:42.475Z,1.47
2018-07-09T12:01:10.524Z,1.30
2018-07-09T12:03:38.610Z,1.32
2018-07-09T12:06:06.686Z,1.52
2018-07-09T12:08:34.756Z,1.72
2018-07-09T12:11:02.847Z,1.32
2018-07-09T12:13:30.906Z,1.70
2018-07-09T12:15:59.002Z,1.70
2018-07-09T12:18:27.902Z,1.60
2018-07-09T12:20:55.985Z,1.65
2018-07-09T12:23:24.054Z,2.08
2018-07-09T12:25:52.155Z,1.50
2018-07-09T12:28:20.198Z,1.45
2018-07-09T12:30:48.275Z,1.50
2018-07-09T12:33:16.344Z,1.30
2018-07-09T12:35:44.442Z,1.50
2018-07-09T12:38:12.955Z,1.67
2018-07-09T12:40:41.030Z,1.45
2018-07-09T12:43:09.470Z,1.60
2018-07-09T12:45:37.546Z,1.50
2018-07-09T12:48:05.878Z,1.87
2018-07-09T12:50:33.951Z,1.70
2018-07-09T12:53:02.007Z,1.98
2018-07-09T12:55:30.150Z,1.57
2018-07-09T12:57:58.206Z,2.08
2018-07-09T13:00:26.277Z,1.80
2018-07-09T13:02:54.350Z,1.70
2018-07-09T13:05:22.426Z,2.00
2018-07-09T13:07:50.733Z,1.80
2018-07-09T13:10:18.806Z,2.02
2018-07-09T13:12:46.883Z,1.90
2018-07-09T13:15:14.954Z,1.82
2018-07-09T13:17:43.050Z,1.90
2018-07-09T13:20:11.135Z,2.10
2018-07-09T13:22:39.428Z,1.80
2018-07-09T13:25:07.501Z,2.35
2018-07-09T13:27:35.439Z,2.40
2018-07-09T13:30:03.810Z,2.10
2018-07-09T13:32:31.884Z,2.58
2018-07-09T13:34:59.942Z,2.10
2018-07-09T13:37:28.043Z,2.05
2018-07-09T13:39:56.114Z,2.25
2018-07-09T13:42:24.216Z,2.22
2018-07-09T13:44:52.325Z,2.10
2018-07-09T13:47:20.578Z,2.35
2018-07-09T13:49:48.704Z,2.55
2018-07-09T13:52:17.058Z,3.00
2018-07-09T13:54:45.125Z,3.40
2018-07-09T13:57:13.198Z,5.80
2018-07-09T13:59:41.282Z,5.15
2018-07-09T14:02:09.487Z,4.90
2018-07-09T14:04:37.608Z,5.30
2018-07-09T14:07:05.742Z,5.42
2018-07-09T14:09:33.595Z,6.40
2018-07-09T14:12:01.735Z,5.92
2018-07-09T14:14:29.832Z,5.95
2018-07-09T14:16:58.186Z,5.60
2018-07-09T14:20:38.103Z,5.33
2018-07-09T14:23:07.374Z,4.65
2018-07-09T14:25:35.642Z,4.60
2018-07-09T14:28:03.742Z,4.90
2018-07-09T14:30:31.887Z,5.37
2018-07-09T14:33:00.147Z,4.83
2018-07-09T14:35:28.549Z,5.50
2018-07-09T14:37:56.596Z,5.17
2018-07-09T14:40:24.887Z,4.85
2018-07-09T14:42:52.996Z,4.75
2018-07-09T14:45:21.082Z,4.75
2018-07-09T14:47:49.502Z,4.53
2018-07-09T14:50:17.602Z,4.15
2018-07-09T14:52:45.717Z,3.72
2018-07-09T14:55:13.886Z,3.50
2018-07-09T14:57:41.964Z,3.50
2018-07-09T15:00:10.370Z,3.87
2018-07-09T15:02:38.440Z,4.35
2018-07-09T15:05:06.514Z,3.60
2018-07-09T15:07:34.612Z,4.25
2018-07-09T15:10:03.763Z,3.85
2018-07-09T15:12:31.983Z,4.15
2018-07-09T15:15:00.051Z,4.65
2018-07-09T15:17:29.383Z,4.50
2018-07-09T15:19:57.603Z,4.25
2018-07-09T15:22:25.683Z,4.90
2018-07-09T15:24:53.754Z,4.87
2018-07-09T15:27:22.423Z,5.33
2018-07-09T15:29:50.558Z,4.85
2018-07-09T15:32:20.854Z,5.10
2018-07-09T15:34:49.182Z,5.08
2018-07-09T15:37:17.578Z,5.05
2018-07-09T15:39:45.789Z,5.40
2018-07-09T15:42:14.191Z,5.17
2018-07-09T15:44:42.249Z,5.40
2018-07-09T15:47:10.315Z,5.12
2018-07-09T15:49:38.982Z,4.03
2018-07-09T15:52:07.048Z,4.40
2018-07-09T15:54:35.184Z,3.62
2018-07-09T15:57:03.243Z,4.45
2018-07-09T15:59:31.314Z,4.75
2018-07-09T16:01:59.636Z,5.30
2018-07-09T16:04:27.875Z,5.03
2018-07-09T16:06:56.113Z,5.17
2018-07-09T16:09:24.174Z,4.40
2018-07-09T16:11:52.356Z,4.62
2018-07-09T16:14:20.516Z,5.47
2018-07-09T16:16:48.603Z,4.85
2018-07-09T16:19:16.665Z,5.58
2018-07-09T16:21:44.797Z,5.37
2018-07-09T16:24:13.019Z,5.80
2018-07-09T16:26:41.101Z,5.40
2018-07-09T16:29:09.261Z,5.70
2018-07-09T16:31:37.266Z,5.33
2018-07-09T16:34:05.123Z,5.67
2018-07-09T16:36:33.206Z,4.55
2018-07-09T16:39:01.680Z,5.50
2018-07-09T16:41:29.787Z,5.28
2018-07-09T16:43:57.989Z,5.50
2018-07-09T16:46:26.075Z,5.33
2018-07-09T16:48:54.173Z,5.40
2018-07-09T16:51:22.240Z,5.03
2018-07-09T16:53:50.098Z,5.80
2018-07-09T16:56:18.193Z,5.10
2018-07-09T16:58:46.240Z,5.30
2018-07-09T17:01:14.310Z,5.03
2018-07-09T17:03:42.734Z,5.67
2018-07-09T17:06:10.808Z,4.20
2018-07-09T17:08:38.871Z,4.40
2018-07-09T17:11:06.943Z,4.23
2018-07-09T17:13:35.043Z,4.12
2018-07-09T17:16:03.375Z,3.70
2018-07-09T17:18:31.443Z,3.57
2018-07-09T17:20:59.590Z,3.90
2018-07-09T17:23:27.663Z,3.62
2018-07-09T17:25:55.731Z,3.80
2018-07-09T17:28:24.082Z,3.40
2018-07-09T17:30:52.176Z,3.40
2018-07-09T17:33:20.250Z,2.98
2018-07-09T17:35:48.335Z,2.60
2018-07-09T17:38:16.420Z,2.80
2018-07-09T17:40:44.490Z,2.95
2018-07-09T17:43:12.543Z,3.40
2018-07-09T17:45:40.738Z,2.77
2018-07-09T17:48:08.818Z,3.67
2018-07-09T17:50:36.894Z,3.43
2018-07-09T17:53:04.975Z,2.87
2018-07-09T17:55:33.052Z,2.43
2018-07-09T17:58:01.114Z,2.47
2018-07-09T18:00:29.184Z,2.30
2018-07-09T18:02:57.424Z,2.90
2018-07-09T18:05:25.487Z,2.53
2018-07-09T18:07:53.573Z,2.52
2018-07-09T18:10:21.712Z,2.30
2018-07-09T18:12:49.710Z,2.20
2018-07-09T18:15:17.781Z,2.33
2018-07-09T18:17:45.880Z,2.33
2018-07-09T18:20:13.974Z,2.10
2018-07-09T18:22:42.035Z,1.90
2018-07-09T18:25:10.111Z,2.23
2018-07-09T18:27:38.454Z,2.57
2018-07-09T18:30:06.984Z,2.00
2018-07-09T18:32:35.070Z,2.63
2018-07-09T18:35:03.360Z,2.73
2018-07-09T18:37:31.409Z,2.43
2018-07-09T18:39:59.510Z,2.47
2018-07-09T18:42:27.882Z,2.10
2018-07-09T18:44:55.946Z,2.40
2018-07-09T18:47:24.022Z,2.37
2018-07-09T18:49:52.091Z,2.30
2018-07-09T18:52:20.156Z,2.70
2018-07-09T18:54:48.215Z,2.30
2018-07-09T18:57:16.389Z,1.93
2018-07-09T18:59:44.466Z,2.40
2018-07-09T19:02:12.532Z,2.20
2018-07-09T19:04:40.610Z,1.97
2018-07-09T19:07:09.960Z,2.73
2018-07-09T19:09:39.067Z,2.03
2018-07-09T19:12:08.114Z,2.10
2018-07-09T19:14:39.447Z,2.10
2018-07-09T19:18:22.082Z,1.90
2018-07-09T19:21:37.549Z,2.17
2018-07-09T19:24:06.102Z,2.20
2018-07-09T19:26:33.223Z,2.37
2018-07-09T19:29:00.381Z,1.73
2018-07-09T19:31:27.524Z,1.87
2018-07-09T19:33:54.694Z,1.93
2018-07-09T19:36:21.834Z,1.90
2018-07-09T19:38:48.998Z,2.40
2018-07-09T19:41:16.167Z,1.63
2018-07-09T19:43:43.570Z,1.70
2018-07-09T19:46:10.721Z,2.20
2018-07-09T19:48:38.412Z,1.80
2018-07-09T19:51:05.591Z,1.37
2018-07-09T19:53:32.754Z,1.77
2018-07-09T19:56:00.336Z,2.57
2018-07-09T19:58:29.014Z,1.40
2018-07-09T20:00:56.240Z,1.53
2018-07-09T20:03:23.409Z,1.87
2018-07-09T20:05:50.538Z,1.70
2018-07-09T20:08:17.729Z,2.17
2018-07-09T20:10:50.412Z,1.50
2018-07-09T20:13:23.000Z,2.00
2018-07-09T20:15:55.643Z,1.50
2018-07-09T20:18:22.870Z,1.60
2018-07-09T20:20:50.037Z,1.20
2018-07-09T20:23:17.282Z,1.30
2018-07-09T20:25:44.427Z,1.13
2018-07-09T20:28:11.624Z,1.57
2018-07-09T20:30:38.764Z,1.50
2018-07-09T20:33:05.905Z,1.90
2018-07-09T20:35:33.052Z,1.60
2018-07-09T20:38:00.213Z,1.60
2018-07-09T20:40:27.346Z,1.40
2018-07-09T20:42:54.515Z,1.73
2018-07-09T20:45:21.766Z,1.23
2018-07-09T20:47:49.058Z,1.80
2018-07-09T20:50:16.228Z,1.10
2018-07-09T20:52:43.366Z,1.43
2018-07-09T20:55:10.534Z,1.43
2018-07-09T20:57:37.684Z,1.50
2018-07-09T21:00:04.858Z,1.40
2018-07-09T21:02:31.994Z,1.30
2018-07-09T21:04:59.175Z,1.40
2018-07-09T21:07:26.353Z,1.40
2018-07-09T21:09:53.495Z,1.50
2018-07-09T21:12:20.678Z,1.47
2018-07-09T21:14:47.821Z,1.40
2018-07-09T21:17:15.031Z,1.60
2018-07-09T21:19:42.377Z,1.30
2018-07-09T21:22:09.570Z,1.50
2018-07-09T21:24:36.770Z,1.60
2018-07-09T21:27:03.967Z,1.23
2018-07-09T21:29:31.192Z,1.53
2018-07-09T21:31:58.470Z,1.97
2018-07-09T21:34:25.608Z,1.87
2018-07-09T21:36:53.057Z,1.77
2018-07-09T21:39:20.195Z,1.70
2018-07-09T21:41:47.357Z,1.90
2018-07-09T21:44:14.492Z,1.60
2018-07-09T21:46:41.632Z,1.52
2018-07-09T21:49:08.834Z,2.70
2018-07-09T21:51:35.994Z,1.47
2018-07-09T21:54:03.135Z,2.00
2018-07-09T21:56:30.333Z,1.43
2018-07-09T21:58:57.423Z,1.87
2018-07-09T22:01:24.867Z,1.67
2018-07-09T22:03:52.011Z,1.80
2018-07-09T22:06:19.138Z,1.77
2018-07-09T22:08:46.286Z,1.73
2018-07-09T22:11:13.438Z,1.93
2018-07-09T22:13:40.918Z,1.77
2018-07-09T22:16:08.074Z,1.97
2018-07-09T22:18:35.223Z,1.80
2018-07-09T22:21:02.413Z,2.13
2018-07-09T22:23:29.586Z,1.50
2018-07-09T22:25:57.135Z,1.70
2018-07-09T22:28:24.262Z,1.30
2018-07-09T22:30:52.467Z,1.70
2018-07-09T22:33:20.523Z,1.80
2018-07-09T22:35:48.542Z,1.70
2018-07-09T22:38:16.615Z,1.73
2018-07-09T22:40:44.699Z,1.27
2018-07-09T22:43:24.338Z,1.33
2018-07-09T22:45:52.419Z,1.30
2018-07-09T22:48:20.490Z,1.40
2018-07-09T22:50:48.633Z,1.10
2018-07-09T22:53:16.723Z,0.80
2018-07-09T22:55:56.410Z,1.20
2018-07-09T22:58:24.474Z,1.10
2018-07-09T23:00:52.554Z,1.00
2018-07-09T23:03:20.606Z,1.00
2018-07-09T23:05:48.650Z,0.90
2018-07-09T23:08:16.726Z,0.87
2018-07-09T23:11:20.236Z,0.87
2018-07-09T23:16:06.737Z,0.90
2018-07-09T23:18:59.708Z,1.20
2018-07-09T23:21:41.006Z,1.03
2018-07-09T23:24:08.176Z,1.30
2018-07-09T23:26:35.338Z,1.60
2018-07-09T23:29:02.498Z,1.10
2018-07-09T23:31:29.642Z,0.97
2018-07-09T23:33:56.832Z,1.40
2018-07-09T23:36:24.118Z,0.90
2018-07-09T23:38:51.980Z,1.10
2018-07-09T23:41:19.117Z,1.53
2018-07-09T23:43:46.252Z,1.17
2018-07-09T23:46:13.402Z,1.10
2018-07-09T23:48:40.586Z,1.37
2018-07-09T23:51:07.803Z,1.37
2018-07-09T23:53:34.869Z,1.53
2018-07-09T23:58:38.098Z,1.73
